createdAt,value
2022-12-03T00:08:10.701Z,90.1
2022-12-03T00:28:10.708Z,90.1
2022-12-03T01:28:10.621Z,88.3
2022-12-03T01:48:10.593Z,88.3
2022-12-03T02:08:10.785Z,88.8
2022-12-03T02:28:10.586Z,89
2022-12-03T02:48:10.540Z,89.6
2022-12-03T03:08:10.598Z,90.3
2022-12-03T03:28:10.514Z,90.2
2022-12-03T03:48:10.512Z,89.8
2022-12-03T04:08:10.562Z,89.5
2022-12-03T04:28:10.481Z,89.3
2022-12-03T04:48:10.452Z,89.3
2022-12-03T05:08:10.501Z,89.4
2022-12-03T05:28:10.475Z,89.3
2022-12-03T05:48:10.419Z,89.5
2022-12-03T06:08:10.451Z,89.7
2022-12-03T06:48:10.371Z,90.6
2022-12-03T07:08:10.437Z,90
2022-12-03T07:48:10.325Z,89.1
2022-12-03T08:28:10.301Z,88.2
2022-12-03T08:48:10.296Z,87.8
2022-12-03T09:28:10.249Z,87.5
2022-12-03T09:48:10.245Z,87
2022-12-03T10:08:10.273Z,86.3
2022-12-03T10:48:10.206Z,85.7
2022-12-03T11:08:10.213Z,85.4
2022-12-03T11:28:10.164Z,85
2022-12-03T11:48:10.160Z,84.8
2022-12-03T12:08:10.171Z,84.7
2022-12-03T12:28:10.130Z,84.5
2022-12-03T12:48:10.171Z,84.4
2022-12-03T13:08:10.503Z,83.9
2022-12-03T13:28:10.064Z,84
2022-12-03T13:48:10.056Z,84.1
2022-12-03T14:28:10.024Z,84
2022-12-03T14:48:10.000Z,84.5
2022-12-03T15:08:10.074Z,85.1
2022-12-03T15:28:09.973Z,85.2
2022-12-03T16:08:10.001Z,85.7
2022-12-03T16:28:09.935Z,85.7
2022-12-03T16:48:09.921Z,85.7
2022-12-03T17:08:09.998Z,85.9
2022-12-03T17:48:09.899Z,86.3
2022-12-03T18:08:09.974Z,86.2
2022-12-03T18:28:09.845Z,86.6
2022-12-03T18:48:09.825Z,86.6
2022-12-03T19:08:09.932Z,86.8
2022-12-03T19:48:09.788Z,87.6
2022-12-03T20:08:09.815Z,88.1
2022-12-03T20:28:09.771Z,88.1
2022-12-03T20:48:09.732Z,88.3
2022-12-03T21:08:09.765Z,88.2
2022-12-03T21:28:09.715Z,88.1
2022-12-03T21:48:09.716Z,87.7
2022-12-03T22:08:09.751Z,87.9
2022-12-03T22:48:09.656Z,87.7
2022-12-03T23:08:09.720Z,87.6
2022-12-03T23:28:09.639Z,87.8
2022-12-03T23:48:09.625Z,87.9
